Flight Track Log - Related Links

Times and Time Zones

All times are in EDT time to prevent confusion due to time zone crossing. See the ACA831 flight status page for this flight to view local times or setup timezone preferences in your user account.


Time Position Orientation Groundspeed Altitude Reporting Facility
EDT Latitude Longitude Course Direction KTS MPH feet Rate Location/Type
Fri 06:24:17 AM 46.2170 6.1030 225° Southwest 161 185 2,500  Level FlightAware ADS-B
Fri 06:24:47 AM 46.2000 6.0790 224° Southwest 166 191 4,000 2,800 Climbing FlightAware ADS-B
Fri 06:25:17 AM 46.1840 6.0560 225° Southwest 170 196 5,300 2,618 Climbing FlightAware ADS-B
Fri 06:25:42 AM 46.1680 6.0330 225° Southwest 174 200 6,400 2,400 Climbing FlightAware ADS-B
Fri 06:26:12 AM 46.1500 6.0060 226° Southwest 198 228 7,500 1,733 Climbing FlightAware ADS-B
Fri 06:26:27 AM 46.1440 5.9860 247° West 228 262 7,700 1,500 Climbing FlightAware ADS-B
Fri 06:26:52 AM 46.1440 5.9460 270° West 254 292 8,500 2,073 Climbing FlightAware ADS-B
Fri 06:27:22 AM 46.1550 5.8960 288° West 284 327 9,600 2,314 Climbing FlightAware ADS-B
Fri 06:28:02 AM 46.1900 5.8390 312° West 313 360 11,200 1,976 Climbing FlightAware ADS-B
Fri 06:28:47 AM 46.2390 5.7590 312° West 367 422 12,400 2,329 Climbing FlightAware ADS-B
Fri 06:29:27 AM 46.2900 5.6870 316° Northwest 382 440 14,500 3,075 Climbing FlightAware ADS-B
Fri 06:30:07 AM 46.3450 5.6230 321° Northwest 392 451 16,500 2,965 Climbing FlightAware ADS-B
Fri 06:30:52 AM 46.4150 5.5670 331° Northwest 401 461 18,700 2,753 Climbing FlightAware ADS-B
Fri 06:31:32 AM 46.4840 5.5250 337° Northwest 411 473 20,400 2,329 Climbing FlightAware ADS-B
Fri 06:32:17 AM 46.5630 5.4760 337° Northwest 423 487 22,000 2,188 Climbing FlightAware ADS-B
Fri 06:32:57 AM 46.6400 5.4290 337° Northwest 435 501 23,500 2,100 Climbing FlightAware ADS-B
Fri 06:33:37 AM 46.7090 5.3860 337° Northwest 443 510 24,800 2,471 Climbing FlightAware ADS-B
Fri 06:34:22 AM 46.7980 5.3310 337° Northwest 435 501 27,000 2,329 Climbing FlightAware ADS-B
Fri 06:35:02 AM 46.8670 5.2750 331° Northwest 443 510 28,100 1,800 Climbing FlightAware ADS-B
Fri 06:35:42 AM 46.9290 5.1910 317° Northwest 448 516 29,400 1,765 Climbing FlightAware ADS-B
Fri 06:36:27 AM 46.9940 5.0980 316° Northwest 455 524 30,600 1,835 Climbing FlightAware ADS-B
Fri 06:37:07 AM 47.0540 5.0130 316° Northwest 451 519 32,000 1,412 Climbing FlightAware ADS-B
Fri 06:37:52 AM 47.1180 4.9210 316° Northwest 465 535 32,600 1,125 Climbing FlightAware ADS-B
Fri 06:38:27 AM 47.1750 4.8390 316° Northwest 466 536 33,500 884 Climbing FlightAware ADS-B
Fri 06:39:27 AM 47.2690 4.7020 315° West 465 535 34,000 300 Climbing FlightAware ADS-B
Fri 06:40:07 AM 47.3290 4.6150 316° Northwest 463 533 34,000  Level FlightAware ADS-B
Fri 06:40:52 AM 47.3960 4.5180 316° Northwest 460 529 34,000  Level FlightAware ADS-B
Fri 06:41:32 AM 47.4600 4.4250 316° Northwest 456 525 34,000  Level FlightAware ADS-B
Fri 06:42:12 AM 47.5180 4.3390 315° West 454 522 34,000  Level FlightAware ADS-B
Fri 06:42:57 AM 47.5800 4.2470 315° West 454 522 34,000  Level FlightAware ADS-B
Fri 06:43:42 AM 47.6490 4.1450 315° West 456 525 34,000  Level FlightAware ADS-B
Fri 06:44:22 AM 47.7080 4.0580 315° West 457 526 34,000  Level FlightAware ADS-B
Fri 06:45:02 AM 47.7710 3.9630 315° West 459 528 34,000  Level FlightAware ADS-B
Fri 06:45:47 AM 47.8370 3.8650 315° West 461 531 34,000  Level FlightAware ADS-B
Fri 06:46:27 AM 47.8940 3.7790 315° West 463 533 34,000  Level FlightAware ADS-B
Fri 06:47:12 AM 47.9670 3.6680 315° West 464 534 34,000  Level FlightAware ADS-B
Fri 06:47:52 AM 48.0280 3.5760 315° West 466 536 34,000  Level FlightAware ADS-B
Fri 06:48:32 AM 48.0870 3.4860 314° West 467 537 34,000  Level FlightAware ADS-B
Fri 06:49:17 AM 48.1540 3.3840 315° West 468 539 34,000  Level FlightAware ADS-B
Fri 06:49:52 AM 48.2100 3.2990 315° West 467 537 34,000  Level FlightAware ADS-B
Fri 06:50:42 AM 48.2850 3.1830 314° West 465 535 34,000  Level FlightAware ADS-B
Fri 06:50:51 AM 48.3010 3.1586 315° West 465 535 34,000  Level FlightAware ADS-B
Fri 06:51:22 AM 48.3470 3.0875 314° West 463 533 34,000  Level FlightAware ADS-B
Fri 06:51:46 AM 48.3827 3.0313 314° West 462 532 34,000  Level FlightAware ADS-B
Fri 06:52:30 AM 48.4255 2.9090 298° West 462 532 34,000  Level FlightAware ADS-B
Fri 06:53:01 AM 48.4449 2.8149 287° West 458 527 34,000  Level FlightAware ADS-B
Fri 06:53:59 AM 48.4787 2.6348 286° West 458 527 34,000  Level FlightAware ADS-B
Fri 06:54:30 AM 48.4962 2.5417 286° West 458 527 34,000  Level FlightAware ADS-B
Fri 06:55:22 AM 48.5261 2.3831 286° West 457 526 34,000  Level FlightAware ADS-B
Fri 06:55:52 AM 48.5441 2.2885 286° West 456 525 34,000  Level FlightAware ADS-B
Fri 06:56:23 AM 48.5616 2.1950 286° West 457 526 34,000 -1,667 Level FlightAware ADS-B
Fri 06:56:46 AM 48.5868 2.1143 286° West 1 1 32,500  Descending FlightAware UK
Fri 06:56:59 AM 48.5822 2.0853 286° West 457 526 34,000  Climbing FlightAware ADS-B
Fri 06:57:22 AM 48.6068 2.0031 286° West 466 536 32,500  Descending FlightAware UK
Fri 06:57:42 AM 48.6071 1.9526 286° West 457 526 34,000 1,765 Climbing FlightAware ADS-B
Fri 06:58:13 AM 48.6243 1.8601 286° West 456 525 34,000 -1,957 Level FlightAware ADS-B
Fri 06:58:28 AM 48.6441 1.8013 286° West 470 541 32,500  Descending FlightAware UK
Fri 06:58:45 AM 48.6423 1.7617 286° West 455 524 34,000  Climbing FlightAware ADS-B
Fri 06:59:04 AM 48.6639 1.6906 286° West 468 539 32,500  Descending FlightAware UK
Fri 06:59:19 AM 48.6613 1.6567 286° West 453 521 34,000 1,957 Climbing FlightAware ADS-B
Fri 06:59:50 AM 48.6784 1.5637 286° West 452 520 34,000 -1,765 Level FlightAware ADS-B
Fri 07:00:10 AM 48.7004 1.4892 286° West 466 536 32,500  Descending FlightAware UK
Fri 07:00:27 AM 48.6930 1.4810 286° West 450 518 34,000  Climbing FlightAware ADS-B
Fri 07:00:46 AM 48.7202 1.3800 286° West 464 534 32,500  Descending FlightAware UK
Fri 07:01:12 AM 48.7220 1.3190 286° West 449 517 34,000  Climbing FlightAware ADS-B
Fri 07:01:40 AM 48.7497 1.2173 286° West 462 532 32,500  Descending FlightAware UK
Fri 07:01:47 AM 48.7390 1.2240 286° West 449 517 34,000  Climbing FlightAware ADS-B
Fri 07:02:04 AM 48.7627 1.1446 286° West 462 532 32,500  Descending FlightAware UK
Fri 07:02:27 AM 48.7590 1.1110 286° West 449 517 34,000  Climbing FlightAware ADS-B
Fri 07:02:46 AM 48.7849 1.0174 286° West 460 529 32,500  Descending FlightAware UK
Fri 07:03:20 AM 48.7922 0.9244 286° West 450 518 34,000  Climbing FlightAware ADS-B
Fri 07:03:40 AM 48.8138 0.8531 286° West 458 527 32,500  Descending FlightAware UK
Fri 07:03:54 AM 48.8102 0.8214 286° West 450 518 34,000  Climbing FlightAware ADS-B
Fri 07:04:16 AM 48.8329 0.7437 286° West 468 539 32,500 -2,250 Descending FlightAware UK
Fri 07:04:34 AM 48.8426 0.6888 285° West 468 539 32,500 3,462 Level FlightAware UK
Fri 07:04:42 AM 48.8340 0.6820 285° West 450 518 34,000  Climbing FlightAware ADS-B
Fri 07:04:58 AM 48.8553 0.6154 285° West 466 536 32,500  Descending FlightAware UK
Fri 07:05:08 AM 48.8486 0.5973 285° West 450 518 34,000  Climbing FlightAware ADS-B
Fri 07:05:27 AM 48.8711 0.5257 285° West 464 534 32,500  Descending FlightAware UK
Fri 07:05:47 AM 48.8689 0.4779 285° West 450 518 34,000  Climbing FlightAware ADS-B
Fri 07:06:15 AM 48.8958 0.3803 285° West 462 532 32,500 -1,731 Descending FlightAware UK
Fri 07:06:39 AM 48.9082 0.3068 284° West 462 532 32,500 2,813 Level FlightAware UK
Fri 07:06:47 AM 48.8980 0.3060 284° West 450 518 34,000 1,875 Climbing FlightAware ADS-B
Fri 07:07:27 AM 48.9190 0.1800 284° West 450 518 34,000  Level FlightAware ADS-B
Fri 07:08:07 AM 48.9400 0.0560 285° West 450 518 34,000 -1,500 Level FlightAware ADS-B
Fri 07:08:27 AM 48.9640 -0.0234 285° West 464 534 32,500  Descending FlightAware UK
Fri 07:08:52 AM 48.9620 -0.0800 285° West 451 519 34,000  Climbing FlightAware ADS-B
Fri 07:09:15 AM 48.9861 -0.1722 285° West 470 541 32,500  Descending FlightAware UK
Fri 07:09:32 AM 48.9840 -0.2060 285° West 450 518 34,000  Climbing FlightAware ADS-B
Fri 07:09:51 AM 49.0051 -0.2826 285° West 462 532 32,500 -2,432 Descending FlightAware UK
Fri 07:10:09 AM 49.0145 -0.3380 285° West 460 529 32,500 3,462 Level FlightAware UK
Fri 07:10:17 AM 49.0050 -0.3410 285° West 448 516 34,000 1,875 Climbing FlightAware ADS-B
Fri 07:10:57 AM 49.0240 -0.4570 284° West 448 516 34,000 -1,406 Level FlightAware ADS-B
Fri 07:11:21 AM 49.0502 -0.5582 284° West 456 525 32,500 -2,143 Descending FlightAware UK
Fri 07:11:39 AM 49.0590 -0.6135 284° West 458 527 32,500 4,286 Level FlightAware UK
Fri 07:11:42 AM 49.0480 -0.6050 284° West 448 516 34,000 2,093 Climbing FlightAware ADS-B
Fri 07:12:22 AM 49.0670 -0.7240 284° West 447 514 34,000  Level FlightAware ADS-B
Fri 07:13:17 AM 49.0940 -0.8930 284° West 447 514 34,000 -1,286 Level FlightAware ADS-B
Fri 07:13:32 AM 49.1144 -0.9629 284° West 458 527 32,500 -2,308 Descending FlightAware UK
Fri 07:13:56 AM 49.1260 -1.0366 284° West 460 529 32,500 3,600 Level FlightAware UK
Fri 07:13:57 AM 49.1120 -1.0130 284° West 447 514 34,000 2,195 Climbing FlightAware ADS-B
Fri 07:14:37 AM 49.1310 -1.1360 283° West 446 513 34,000 -1,385 Level FlightAware ADS-B
Fri 07:15:02 AM 49.1575 -1.2385 283° West 460 529 32,500  Descending FlightAware UK
Fri 07:15:22 AM 49.1530 -1.2760 283° West 445 512 34,000 1,385 Climbing FlightAware ADS-B
Fri 07:16:07 AM 49.1740 -1.4120 283° West 444 511 34,000 -1,184 Level FlightAware ADS-B
Fri 07:16:38 AM 49.2022 -1.5318 283° West 458 527 32,500  Descending FlightAware UK
Fri 07:17:02 AM 49.1970 -1.5680 283° West 444 511 34,000  Climbing FlightAware ADS-B
Fri 07:17:20 AM 49.2229 -1.6602 283° West 456 525 32,500  Descending FlightAware UK
Fri 07:17:42 AM 49.2160 -1.6950 283° West 444 511 34,000 1,343 Climbing FlightAware ADS-B
Fri 07:18:27 AM 49.2360 -1.8310 283° West 444 511 34,000  Level FlightAware ADS-B
Fri 07:19:07 AM 49.2560 -1.9610 283° West 444 511 34,000  Level FlightAware ADS-B
Fri 07:19:47 AM 49.2730 -2.0810 282° West 444 511 34,000 -1,636 Level FlightAware ADS-B
Fri 07:20:02 AM 49.2959 -2.1579 282° West 458 527 32,500  Descending FlightAware UK
Fri 07:20:27 AM 49.2890 -2.1940 282° West 445 512 34,000  Climbing FlightAware ADS-B
Fri 07:20:43 AM 49.3147 -2.2865 282° West 460 529 32,500  Descending FlightAware UK
Fri 07:21:17 AM 49.3120 -2.3490 282° West 444 511 34,000  Climbing FlightAware ADS-B
Fri 07:21:55 AM 49.3462 -2.5074 282° West 462 532 32,500  Descending FlightAware UK
Fri 07:22:12 AM 49.3370 -2.5290 282° West 441 507 34,000  Climbing FlightAware ADS-B
Fri 07:22:31 AM 49.3617 -2.6181 282° West 460 529 32,500 -2,432 Descending FlightAware UK
Fri 07:22:49 AM 49.3693 -2.6735 282° West 460 529 32,500 3,462 Level FlightAware UK
Fri 07:22:57 AM 49.3570 -2.6670 282° West 440 506 34,000  Climbing FlightAware ADS-B
Fri 07:23:31 AM 49.3877 -2.8014 282° West 462 532 32,500  Descending FlightAware UK
Fri 07:23:37 AM 49.3740 -2.7880 282° West 439 505 34,000 1,957 Climbing FlightAware ADS-B
Fri 07:24:17 AM 49.3900 -2.9080 282° West 438 504 34,000 -1,364 Level FlightAware ADS-B
Fri 07:24:43 AM 49.4179 -3.0207 282° West 458 527 32,500 -1,800 Descending FlightAware UK
Fri 07:25:07 AM 49.4280 -3.0938 282° West 458 527 32,500 3,750 Level FlightAware UK
Fri 07:25:07 AM 49.4120 -3.0640 282° West 436 502 34,000  Climbing FlightAware ADS-B
Fri 07:25:31 AM 49.4380 -3.1668 282° West 458 527 32,500  Descending FlightAware UK
Fri 07:25:52 AM 49.4300 -3.2010 282° West 435 501 34,000  Climbing FlightAware ADS-B
Fri 07:26:31 AM 49.4628 -3.3483 282° West 460 529 32,500  Descending FlightAware UK
Fri 07:26:37 AM 49.4490 -3.3380 282° West 433 498 34,000  Climbing FlightAware ADS-B
Fri 07:26:55 AM 49.4727 -3.4208 282° West 460 529 32,500 -2,143 Descending FlightAware UK
Fri 07:27:19 AM 49.4825 -3.4933 282° West 458 527 32,500 2,143 Level FlightAware UK
Fri 07:27:37 AM 49.4730 -3.5190 282° West 431 496 34,000  Climbing FlightAware ADS-B
Fri 07:28:07 AM 49.5021 -3.6376 282° West 458 527 32,500  Descending FlightAware UK
Fri 07:28:17 AM 49.4880 -3.6290 282° West 431 496 34,000  Climbing FlightAware ADS-B
Fri 07:28:37 AM 49.5141 -3.7276 282° West 456 525 32,500 -2,368 Descending FlightAware UK
Fri 07:28:55 AM 49.5213 -3.7814 282° West 456 525 32,500 4,500 Level FlightAware UK
Fri 07:28:57 AM 49.5040 -3.7480 282° West 429 494 34,000  Climbing FlightAware ADS-B
Fri 07:29:19 AM 49.5310 -3.8532 282° West 456 525 32,500  Descending FlightAware UK
Fri 07:29:42 AM 49.5210 -3.8790 282° West 428 493 34,000  Climbing FlightAware ADS-B
Fri 07:30:07 AM 49.5498 -3.9966 282° West 456 525 32,500  Descending FlightAware UK
Fri 07:30:22 AM 49.5370 -3.9970 282° West 427 491 34,000 1,636 Climbing FlightAware ADS-B
Fri 07:31:02 AM 49.5530 -4.1220 281° West 427 491 34,000 -1,235 Level FlightAware ADS-B
Fri 07:31:30 AM 49.5818 -4.2458 281° West 454 522 32,600 400 Descending FlightAware UK
Fri 07:31:47 AM 49.5700 -4.2570 281° West 423 487 34,300 2,105 Climbing FlightAware ADS-B
Fri 07:32:27 AM 49.5850 -4.3760 281° West 421 484 34,600 -1,091 Climbing FlightAware ADS-B
Fri 07:32:42 AM 49.6089 -4.4584 281° West 452 520 33,300 -2,000 Descending FlightAware UK
Fri 07:33:00 AM 49.6156 -4.5113 281° West 454 522 33,500 3,600 Climbing FlightAware UK
Fri 07:33:12 AM 49.6020 -4.5080 281° West 423 487 35,100 600 Climbing FlightAware ADS-B
Fri 07:33:30 AM 49.6268 -4.5997 281° West 454 522 33,800 600 Descending FlightAware UK
Fri 07:33:52 AM 49.6170 -4.6270 281° West 422 486 35,500 571 Climbing FlightAware ADS-B
Fri 07:34:12 AM 49.6423 -4.7240 281° West 450 518 34,200 -1,895 Descending FlightAware UK
Fri 07:34:30 AM 49.6489 -4.7775 281° West 448 516 34,300 3,840 Climbing FlightAware UK
Fri 07:34:37 AM 49.6330 -4.7620 281° West 432 497 35,800 333 Climbing FlightAware ADS-B
Fri 07:35:06 AM 49.6623 -4.8871 281° West 460 529 34,500 300 Descending FlightAware UK
Fri 07:35:17 AM 49.6480 -4.8800 281° West 438 504 36,000  Climbing FlightAware ADS-B
Fri 07:35:36 AM 49.6735 -4.9793 281° West 464 534 34,500  Descending FlightAware UK
Fri 07:35:57 AM 49.6630 -5.0040 281° West 431 496 36,000  Climbing FlightAware ADS-B
Fri 07:36:12 AM 49.6869 -5.0879 281° West 456 525 34,500 -2,308 Descending FlightAware UK
Fri 07:36:36 AM 49.6956 -5.1595 281° West 456 525 34,500 3,000 Level FlightAware UK
Fri 07:36:42 AM 49.6790 -5.1410 281° West 422 486 36,000  Climbing FlightAware ADS-B
Fri 07:37:00 AM 49.7042 -5.2306 281° West 454 522 34,500  Descending FlightAware UK
Fri 07:37:22 AM 49.6940 -5.2610 281° West 420 483 36,000  Climbing FlightAware ADS-B
Fri 07:37:42 AM 49.7189 -5.3544 281° West 450 518 34,500 -2,368 Descending FlightAware UK
Fri 07:38:00 AM 49.7250 -5.4071 280° West 450 518 34,500 3,600 Level FlightAware UK
Fri 07:38:07 AM 49.7090 -5.3940 280° West 416 479 36,000  Climbing FlightAware ADS-B
Fri 07:38:30 AM 49.7349 -5.4946 280° West 450 518 34,500  Descending FlightAware UK
Fri 07:38:47 AM 49.7230 -5.5080 280° West 414 476 36,000  Climbing FlightAware ADS-B
Fri 07:39:06 AM 49.7472 -5.5990 280° West 446 513 34,500 -2,432 Descending FlightAware UK
Fri 07:39:24 AM 49.7532 -5.6510 280° West 446 513 34,500 4,286 Level FlightAware UK
Fri 07:39:27 AM 49.7360 -5.6240 280° West 413 475 36,000  Climbing FlightAware ADS-B
Fri 07:39:42 AM 49.7591 -5.7031 280° West 446 513 34,500 -2,727 Descending FlightAware UK
Fri 07:40:00 AM 49.7652 -5.7551 280° West 446 513 34,500 3,000 Level FlightAware UK
Fri 07:40:12 AM 49.7520 -5.7590 280° West 413 475 36,000  Climbing FlightAware ADS-B
Fri 07:40:30 AM 49.7754 -5.8418 280° West 448 516 34,500 -2,500 Descending FlightAware UK
Fri 07:40:48 AM 49.7814 -5.8933 280° West 448 516 34,500 4,091 Level FlightAware UK
Fri 07:40:52 AM 49.7640 -5.8720 280° West 413 475 36,000  Climbing FlightAware ADS-B
Fri 07:41:12 AM 49.7891 -5.9630 280° West 446 513 34,500 -2,368 Descending FlightAware UK
Fri 07:41:30 AM 49.7949 -6.0153 280° West 446 513 34,500 4,500 Level FlightAware UK
Fri 07:41:32 AM 49.7780 -5.9910 280° West 415 478 36,000  Climbing FlightAware ADS-B
Fri 07:41:48 AM 49.8007 -6.0676 280° West 448 516 34,500 -2,647 Descending FlightAware UK
Fri 07:42:06 AM 49.8066 -6.1200 280° West 448 516 34,500 3,103 Level FlightAware UK
Fri 07:42:17 AM 49.7920 -6.1200 280° West 416 479 36,000  Climbing FlightAware ADS-B
Fri 07:42:36 AM 49.8163 -6.2076 280° West 450 518 34,500 -2,432 Descending FlightAware UK
Fri 07:42:54 AM 49.8222 -6.2602 280° West 452 520 34,500 4,286 Level FlightAware UK
Fri 07:42:57 AM 49.8050 -6.2370 280° West 418 481 36,000  Climbing FlightAware ADS-B
Fri 07:43:12 AM 49.8279 -6.3131 280° West 452 520 34,500 -2,727 Descending FlightAware UK
Fri 07:43:30 AM 49.8338 -6.3660 280° West 450 518 34,500 3,000 Level FlightAware UK
Fri 07:43:42 AM 49.8200 -6.3730 280° West 419 482 36,000  Climbing FlightAware ADS-B
Fri 07:44:00 AM 49.8435 -6.4542 280° West 450 518 34,500 -2,500 Descending FlightAware UK
Fri 07:44:18 AM 49.8491 -6.5074 279° West 450 518 34,500 4,091 Level FlightAware UK
Fri 07:44:22 AM 49.8330 -6.4890 279° West 421 484 36,000  Climbing FlightAware ADS-B
Fri 07:44:42 AM 49.8567 -6.5784 279° West 452 520 34,500  Descending FlightAware UK
Fri 07:45:07 AM 49.8470 -6.6180 279° West 422 486 36,000  Climbing FlightAware ADS-B
Fri 07:45:24 AM 49.8700 -6.7031 279° West 452 520 34,500 -2,571 Descending FlightAware UK
Fri 07:45:42 AM 49.8757 -6.7566 279° West 452 520 34,500 3,913 Level FlightAware UK
Fri 07:45:47 AM 49.8600 -6.7430 279° West 424 488 36,000  Climbing FlightAware ADS-B
Fri 07:46:06 AM 49.8832 -6.8280 279° West 454 522 34,500 -2,432 Descending FlightAware UK
Fri 07:46:24 AM 49.8889 -6.8816 279° West 456 525 34,500 4,286 Level FlightAware UK
Fri 07:46:27 AM 49.8720 -6.8630 279° West 425 489 36,000  Climbing FlightAware ADS-B
Fri 07:46:42 AM 49.8945 -6.9354 279° West 456 525 34,500 -2,727 Descending FlightAware UK
Fri 07:47:00 AM 49.9000 -6.9893 279° West 456 525 34,500 3,000 Level FlightAware UK
Fri 07:47:12 AM 49.8860 -6.9950 279° West 426 490 36,000  Climbing FlightAware ADS-B
Fri 07:47:30 AM 49.9091 -7.0786 279° West 456 525 34,500 -2,500 Descending FlightAware UK
Fri 07:47:48 AM 49.9148 -7.1325 279° West 456 525 34,500 4,091 Level FlightAware UK
Fri 07:47:52 AM 49.9000 -7.1190 279° West 425 489 36,000  Climbing FlightAware ADS-B
Fri 07:48:12 AM 49.9295 -7.2018 279° West 456 525 34,500 -2,368 Descending FlightAware UK
Fri 07:48:30 AM 49.9428 -7.2521 292° West 458 527 34,500 4,500 Level FlightAware UK
Fri 07:48:32 AM 49.9270 -7.2330 292° West 424 488 36,000  Climbing FlightAware ADS-B
Fri 07:48:48 AM 49.9588 -7.3005 292° West 458 527 34,500 -2,647 Descending FlightAware UK
Fri 07:49:06 AM 49.9742 -7.3494 296° West 458 527 34,500 3,103 Level FlightAware UK
Fri 07:49:17 AM 49.9640 -7.3490 296° West 424 488 36,000  Climbing FlightAware ADS-B
Fri 07:49:36 AM 49.9996 -7.4310 296° West 456 525 34,500 -2,432 Descending FlightAware UK
Fri 07:49:54 AM 50.0150 -7.4798 296° West 456 525 34,500 4,286 Level FlightAware UK
Fri 07:49:57 AM 49.9990 -7.4620 296° West 423 487 36,000  Climbing FlightAware ADS-B
Fri 07:50:12 AM 50.0304 -7.5286 296° West 456 525 34,500 -2,727 Descending FlightAware UK
Fri 07:50:30 AM 50.0457 -7.5775 296° West 456 525 34,500 3,000 Level FlightAware UK
Fri 07:50:42 AM 50.0380 -7.5870 296° West 423 487 36,000  Climbing FlightAware ADS-B
Fri 07:51:00 AM 50.0714 -7.6589 296° West 456 525 34,500  Descending FlightAware UK
Fri 07:51:17 AM 50.0680 -7.6810 296° West 423 487 36,000  Climbing FlightAware ADS-B
Fri 07:51:18 AM 50.0867 -7.7079 296° West 456 525 34,500 -4,737 Descending FlightAware UK
Fri 07:51:36 AM 50.1020 -7.7568 296° West 458 527 34,500  Level FlightAware UK
Fri 07:51:54 AM 50.1173 -7.8057 296° West 456 525 34,500 4,286 Level FlightAware UK
Fri 07:51:57 AM 50.0990 -7.7810 296° West 419 482 36,000  Climbing FlightAware ADS-B
Fri 07:52:12 AM 50.1326 -7.8546 296° West 456 525 34,500 -2,727 Descending FlightAware UK
Fri 07:52:30 AM 50.1478 -7.9034 296° West 454 522 34,500 3,000 Level FlightAware UK
Fri 07:52:42 AM 50.1350 -7.8980 296° West 418 481 36,000  Climbing FlightAware ADS-B
Fri 07:53:00 AM 50.1729 -7.9851 296° West 456 525 34,500 -2,500 Descending FlightAware UK
Fri 07:53:18 AM 50.1875 -8.0342 295° West 456 525 34,500 3,333 Level FlightAware UK
Fri 07:53:27 AM 50.1760 -8.0350 295° West 421 484 36,000  Climbing FlightAware ADS-B
Fri 07:53:42 AM 50.2069 -8.0999 295° West 454 522 34,500 -2,727 Descending FlightAware UK
Fri 07:54:00 AM 50.2213 -8.1487 295° West 454 522 34,500 3,000 Level FlightAware UK
Fri 07:54:12 AM 50.2150 -8.1630 295° West 420 483 36,000  Climbing FlightAware ADS-B
Fri 07:54:30 AM 50.2458 -8.2305 295° West 456 525 34,500 -2,500 Descending FlightAware UK
Fri 07:54:48 AM 50.2604 -8.2796 295° West 456 525 34,500 4,091 Level FlightAware UK
Fri 07:54:52 AM 50.2440 -8.2620 295° West 419 482 36,000  Climbing FlightAware ADS-B
Fri 07:55:12 AM 50.2800 -8.3449 295° West 454 522 34,500 -2,368 Descending FlightAware UK
Fri 07:55:30 AM 50.2946 -8.3938 295° West 454 522 34,500 4,500 Level FlightAware UK
Fri 07:55:32 AM 50.2760 -8.3710 295° West 418 481 36,000  Climbing FlightAware ADS-B
Fri 07:55:48 AM 50.3091 -8.4427 295° West 452 520 34,500 -2,647 Descending FlightAware UK
Fri 07:56:06 AM 50.3236 -8.4917 295° West 452 520 34,500 3,103 Level FlightAware UK
Fri 07:56:17 AM 50.3130 -8.4950 295° West 418 481 36,000  Climbing FlightAware ADS-B
Fri 07:56:36 AM 50.3476 -8.5732 295° West 452 520 34,500 -2,432 Descending FlightAware UK
Fri 07:56:54 AM 50.3620 -8.6221 295° West 452 520 34,500 4,286 Level FlightAware UK
Fri 07:56:57 AM 50.3450 -8.6050 295° West 413 475 36,000  Climbing FlightAware ADS-B
Fri 07:57:12 AM 50.3764 -8.6711 295° West 454 522 34,500 -2,727 Descending FlightAware UK
Fri 07:57:30 AM 50.3907 -8.7199 295° West 452 520 34,500 3,000 Level FlightAware UK
Fri 07:57:42 AM 50.3810 -8.7270 295° West 413 475 36,000  Climbing FlightAware ADS-B
Fri 07:58:00 AM 50.4144 -8.8015 295° West 450 518 34,500 -2,500 Descending FlightAware UK
Fri 07:58:18 AM 50.4288 -8.8503 295° West 450 518 34,500 4,091 Level FlightAware UK
Fri 07:58:22 AM 50.4140 -8.8380 295° West 412 474 36,000  Climbing FlightAware ADS-B
Fri 07:58:42 AM 50.4478 -8.9155 295° West 450 518 34,500 -2,368 Descending FlightAware UK
Fri 07:59:00 AM 50.4619 -8.9644 294° West 450 518 34,500 4,500 Level FlightAware UK
Fri 07:59:02 AM 50.4470 -8.9520 294° West 415 478 36,000 1,915 Climbing FlightAware ADS-B
Fri 07:59:47 AM 50.4820 -9.0760 294° West 415 478 36,000  Level FlightAware ADS-B
Fri 08:00:27 AM 50.5140 -9.1880 294° West 415 478 36,000  Level FlightAware ADS-B
Fri 08:01:02 AM 50.5410 -9.2820 294° West 415 478 36,000  Level FlightAware ADS-B
Fri 08:01:52 AM 50.5800 -9.4180 294° West 415 478 36,000  Level FlightAware ADS-B
Fri 08:03:02 AM 50.6360 -9.6160 294° West 415 478 36,000  Level FlightAware ADS-B
Fri 08:03:42 AM 50.6660 -9.7250 294° West 414 476 36,000  Level FlightAware ADS-B
Fri 08:04:27 AM 50.6990 -9.8420 294° West 411 473 36,000  Level FlightAware ADS-B
Fri 08:05:07 AM 50.7290 -9.9500 294° West 413 475 36,000  Level FlightAware ADS-B
Fri 08:05:47 AM 50.7620 -10.0680 294° West 414 476 36,000  Level FlightAware ADS-B
Fri 08:06:32 AM 50.7960 -10.1930 293° West 414 476 36,000  Level FlightAware ADS-B
Fri 08:07:07 AM 50.8190 -10.2790 293° West 414 476 36,000  Level FlightAware ADS-B
Fri 08:07:57 AM 50.8510 -10.3970 293° West 414 476 36,000  Level FlightAware ADS-B
Fri 08:08:37 AM 50.8890 -10.5350 294° West 416 479 36,000  Level FlightAware ADS-B
Fri 08:09:17 AM 50.9190 -10.6460 293° West 416 479 36,000  Level FlightAware ADS-B
Fri 08:10:02 AM 50.9500 -10.7600 293° West 416 479 36,000  Level FlightAware ADS-B
Fri 08:10:37 AM 50.9740 -10.8550 292° West 416 479 36,000  Level FlightAware ADS-B
Fri 08:11:27 AM 51.0050 -10.9760 292° West 416 479 36,000  Level FlightAware ADS-B
Fri 08:12:07 AM 51.0290 -11.0720 292° West 416 479 36,000  Level FlightAware ADS-B
Fri 08:12:42 AM 51.0730 -11.2250 295° West 415 478 36,000  Level FlightAware ADS-B
Fri 08:13:27 AM 51.1020 -11.3400 292° West 415 478 36,000  Level FlightAware ADS-B
Fri 08:14:17 AM 51.1330 -11.4610 292° West 415 478 36,000  Level FlightAware ADS-B
Fri 08:14:57 AM 51.1570 -11.5570 292° West 415 478 36,000  Level FlightAware ADS-B
Fri 08:15:37 AM 51.1820 -11.6540 292° West 415 478 36,000  Level FlightAware ADS-B
Fri 08:16:17 AM 51.2060 -11.7500 292° West 415 478 36,000  Level FlightAware ADS-B
Fri 08:16:57 AM 51.2310 -11.8470 292° West 415 478 36,000  Level FlightAware ADS-B
Fri 08:17:37 AM 51.2550 -11.9440 292° West 415 478 36,000  Level FlightAware ADS-B
Fri 08:18:27 AM 51.2860 -12.0650 292° West 415 478 36,000  Level FlightAware ADS-B
Fri 08:19:07 AM 51.3100 -12.1610 292° West 415 478 36,000  Level FlightAware ADS-B
Fri 08:19:47 AM 51.3350 -12.2580 292° West 415 478 36,000  Level FlightAware ADS-B
Fri 08:20:27 AM 51.3590 -12.3550 292° West 415 478 36,000  Level FlightAware ADS-B
Fri 08:21:17 AM 51.3890 -12.4760 292° West 415 478 36,000  Level FlightAware ADS-B
Fri 08:21:57 AM 51.4140 -12.5730 292° West 415 478 36,000  Level FlightAware ADS-B
Fri 08:22:37 AM 51.4380 -12.6710 291° West 415 478 36,000  Level FlightAware ADS-B
Fri 08:25:00 AM 51.5205 -13.1305 286° West  Level Estimated
Fri 08:26:00 AM 51.5546 -13.3238 286° West  Level Estimated
Fri 08:27:00 AM 51.5884 -13.5174 286° West  Level Estimated
Fri 08:28:00 AM 51.6219 -13.7113 286° West  Level Estimated
Fri 08:29:00 AM 51.6550 -13.9054 285° West  Level Estimated
Fri 08:30:00 AM 51.6878 -14.0999 285° West  Level Estimated
Fri 08:31:00 AM 51.7203 -14.2946 285° West  Level Estimated
Fri 08:32:00 AM 51.7525 -14.4896 285° West  Level Estimated
Fri 08:33:00 AM 51.7843 -14.6849 285° West  Level Estimated
Fri 08:34:00 AM 51.8159 -14.8804 285° West  Level Estimated
Fri 08:35:00 AM 51.8471 -15.0763 285° West  Level Estimated
Fri 08:36:00 AM 51.8779 -15.2723 284° West  Level Estimated
Fri 08:37:00 AM 51.9085 -15.4687 284° West  Level Estimated
Fri 08:38:00 AM 51.9387 -15.6653 284° West  Level Estimated
Fri 08:39:00 AM 51.9685 -15.8613 284° West  Level Estimated
Fri 08:40:00 AM 51.9979 -16.0575 284° West  Level Estimated
Fri 08:41:00 AM 52.0270 -16.2540 284° West  Level Estimated
Fri 08:42:00 AM 52.0562 -16.4536 283° West  Level Estimated
Fri 08:43:00 AM 52.0850 -16.6533 283° West  Level Estimated
Fri 08:44:00 AM 52.1135 -16.8534 283° West  Level Estimated
Fri 08:45:00 AM 52.1417 -17.0537 283° West  Level Estimated
Fri 08:46:00 AM 52.1695 -17.2542 283° West  Level Estimated
Fri 08:47:00 AM 52.1970 -17.4550 283° West  Level Estimated
Fri 08:48:00 AM 52.2242 -17.6561 283° West  Level Estimated
Fri 08:49:00 AM 52.2510 -17.8574 282° West  Level Estimated
Fri 08:50:00 AM 52.2774 -18.0589 282° West  Level Estimated
Fri 08:51:00 AM 52.3036 -18.2607 282° West  Level Estimated
Fri 08:52:00 AM 52.3293 -18.4627 282° West  Level Estimated
Fri 08:53:00 AM 52.3548 -18.6649 282° West  Level Estimated
Fri 08:54:00 AM 52.3798 -18.8674 282° West  Level Estimated
Fri 08:55:00 AM 52.4046 -19.0701 281° West  Level Estimated
Fri 08:56:00 AM 52.4290 -19.2730 281° West  Level Estimated
Fri 08:57:00 AM 52.4530 -19.4762 281° West  Level Estimated
Fri 08:58:00 AM 52.4767 -19.6796 281° West  Level Estimated
Fri 08:59:00 AM 52.5000 -19.8832 281° West  Level Estimated
Fri 09:00:00 AM 52.5230 -20.0870 281° West  Level Estimated
Fri 09:01:00 AM 52.5457 -20.2910 280° West  Level Estimated
Fri 09:02:00 AM 52.5680 -20.4952 280° West  Level Estimated
Fri 09:02:00 AM 52.0000 -20.0000 265° West 482 555 36,000  Level ETMS Enhanced Traffic Management System
Fri 09:03:00 AM 52.5899 -20.6996 280° West  Level Estimated
Fri 09:04:00 AM 52.6114 -20.9037 280° West  Level Estimated
Fri 09:05:00 AM 52.6326 -21.1078 280° West  Level Estimated
Fri 09:06:00 AM 52.6534 -21.3123 280° West  Level Estimated
Fri 09:07:00 AM 52.6739 -21.5168 279° West  Level Estimated
Fri 09:08:00 AM 51.8904 -21.7305 263° West 482 555 36,000  Level FlightAware Transoceanic
Fri 09:09:00 AM 51.8749 -21.9462 263° West 482 555 36,000  Level FlightAware Transoceanic
Fri 09:10:00 AM 51.8590 -22.1617 263° West 482 555 36,000  Level FlightAware Transoceanic
Fri 09:11:00 AM 51.8427 -22.3771 263° West 482 555 36,000  Level FlightAware Transoceanic
Fri 09:12:00 AM 51.8261 -22.5923 263° West 482 555 36,000  Level FlightAware Transoceanic
Fri 09:13:00 AM 51.8090 -22.8074 263° West 482 555 36,000  Level FlightAware Transoceanic
Fri 09:14:00 AM 51.7916 -23.0223 262° West 482 555 36,000  Level FlightAware Transoceanic
Fri 09:15:00 AM 51.7737 -23.2370 262° West 482 555 36,000  Level FlightAware Transoceanic
Fri 09:16:00 AM 51.7555 -23.4516 262° West 482 555 36,000  Level FlightAware Transoceanic
Fri 09:17:00 AM 51.7369 -23.6660 262° West 482 555 36,000  Level FlightAware Transoceanic
Fri 09:18:00 AM 51.7179 -23.8802 262° West 482 555 36,000  Level FlightAware Transoceanic
Fri 09:19:00 AM 51.6985 -24.0942 262° West 482 555 36,000  Level FlightAware Transoceanic
Fri 09:20:00 AM 51.6787 -24.3081 261° West 482 555 36,000  Level FlightAware Transoceanic
Fri 09:21:00 AM 51.6585 -24.5217 261° West 482 555 36,000  Level FlightAware Transoceanic
Fri 09:22:00 AM 51.6379 -24.7352 261° West 482 555 36,000  Level FlightAware Transoceanic
Fri 09:23:00 AM 51.6170 -24.9484 261° West 482 555 36,000  Level FlightAware Transoceanic
Fri 09:24:00 AM 51.5956 -25.1615 261° West 482 555 36,000  Level FlightAware Transoceanic
Fri 09:25:00 AM 51.5739 -25.3744 261° West 482 555 36,000  Level FlightAware Transoceanic
Fri 09:26:00 AM 51.5518 -25.5870 260° West 482 555 36,000  Level FlightAware Transoceanic
Fri 09:27:00 AM 51.5293 -25.7995 260° West 482 555 36,000  Level FlightAware Transoceanic
Fri 09:28:00 AM 51.5065 -26.0117 260° West 482 555 36,000  Level FlightAware Transoceanic
Fri 09:29:00 AM 51.4832 -26.2237 260° West 482 555 36,000  Level FlightAware Transoceanic
Fri 09:30:00 AM 51.4596 -26.4356 260° West 482 555 36,000  Level FlightAware Transoceanic
Fri 09:31:00 AM 51.4355 -26.6471 260° West 482 555 36,000  Level FlightAware Transoceanic
Fri 09:32:00 AM 51.4111 -26.8585 259° West 482 555 36,000  Level FlightAware Transoceanic
Fri 09:33:00 AM 51.3864 -27.0696 259° West 482 555 36,000  Level FlightAware Transoceanic
Fri 09:34:00 AM 51.3612 -27.2805 259° West 482 555 36,000  Level FlightAware Transoceanic
Fri 09:35:00 AM 51.3357 -27.4912 259° West 482 555 36,000  Level FlightAware Transoceanic
Fri 09:36:00 AM 51.3097 -27.7016 259° West 482 555 36,000  Level FlightAware Transoceanic
Fri 09:37:00 AM 51.2835 -27.9118 259° West 482 555 36,000  Level FlightAware Transoceanic
Fri 09:38:00 AM 51.2568 -28.1218 258° West 482 555 36,000  Level FlightAware Transoceanic
Fri 09:39:00 AM 51.2297 -28.3315 258° West 482 555 36,000  Level FlightAware Transoceanic
Fri 09:40:00 AM 51.2023 -28.5410 258° West 482 555 36,000  Level FlightAware Transoceanic
Fri 09:41:00 AM 51.1745 -28.7502 258° West 482 555 36,000  Level FlightAware Transoceanic
Fri 09:42:00 AM 51.1464 -28.9591 258° West 482 555 36,000  Level FlightAware Transoceanic
Fri 09:43:00 AM 51.1178 -29.1678 258° West 482 555 36,000  Level FlightAware Transoceanic
Fri 09:44:00 AM 51.0889 -29.3763 257° West 482 555 36,000  Level FlightAware Transoceanic
Fri 09:45:00 AM 51.0597 -29.5844 257° West 482 555 36,000  Level FlightAware Transoceanic
Fri 09:46:00 AM 51.0300 -29.7924 257° West 482 555 36,000  Level FlightAware Transoceanic
Fri 09:47:00 AM 51.0019 -29.9872 257° West  Level FlightAware Approximate
Fri 09:48:00 AM 50.9735 -30.1818 257° West  Level FlightAware Approximate
Fri 09:49:00 AM 50.9903 -30.1728 265° West  Level FlightAware Approximate
Fri 09:50:00 AM 50.9787 -30.3718 265° West  Level FlightAware Approximate
Fri 09:51:00 AM 50.9669 -30.5706 265° West  Level FlightAware Approximate
Fri 09:51:00 AM 51.0000 -30.0000 265° West 492 566 36,000  Level ETMS Enhanced Traffic Management System
Fri 09:52:00 AM 50.9547 -30.7693 265° West  Level FlightAware Approximate
Fri 09:53:00 AM 50.9421 -30.9679 264° West  Level FlightAware Approximate
Fri 09:54:00 AM 50.9292 -31.1665 264° West  Level FlightAware Approximate
Fri 09:55:00 AM 50.9160 -31.3648 264° West  Level FlightAware Approximate
Fri 09:56:00 AM 50.9025 -31.5631 264° West  Level FlightAware Approximate
Fri 09:57:00 AM 50.8595 -32.1605 263° West 492 566 36,000  Level FlightAware Transoceanic
Fri 09:58:00 AM 50.8433 -32.3758 263° West 492 566 36,000  Level FlightAware Transoceanic
Fri 09:59:00 AM 50.8267 -32.5909 263° West 492 566 36,000  Level FlightAware Transoceanic
Fri 10:00:00 AM 50.8097 -32.8059 263° West 492 566 36,000  Level FlightAware Transoceanic
Fri 10:01:00 AM 50.7922 -33.0207 263° West 492 566 36,000  Level FlightAware Transoceanic
Fri 10:02:00 AM 50.7744 -33.2354 262° West 492 566 36,000  Level FlightAware Transoceanic
Fri 10:03:00 AM 50.7562 -33.4499 262° West 492 566 36,000  Level FlightAware Transoceanic
Fri 10:04:00 AM 50.7376 -33.6642 262° West 492 566 36,000  Level FlightAware Transoceanic
Fri 10:05:00 AM 50.7186 -33.8784 262° West 492 566 36,000  Level FlightAware Transoceanic
Fri 10:06:00 AM 50.6992 -34.0924 262° West 492 566 36,000  Level FlightAware Transoceanic
Fri 10:07:00 AM 50.6795 -34.3062 262° West 492 566 36,000  Level FlightAware Transoceanic
Fri 10:08:00 AM 50.6593 -34.5198 261° West 492 566 36,000  Level FlightAware Transoceanic
Fri 10:09:00 AM 50.6387 -34.7333 261° West 492 566 36,000  Level FlightAware Transoceanic
Fri 10:10:00 AM 50.6178 -34.9465 261° West 492 566 36,000  Level FlightAware Transoceanic
Fri 10:11:00 AM 50.5965 -35.1596 261° West 492 566 36,000  Level FlightAware Transoceanic
Fri 10:12:00 AM 50.5747 -35.3724 261° West 492 566 36,000  Level FlightAware Transoceanic
Fri 10:13:00 AM 50.5526 -35.5851 261° West 492 566 36,000  Level FlightAware Transoceanic
Fri 10:14:00 AM 50.5301 -35.7976 260° West 492 566 36,000  Level FlightAware Transoceanic
Fri 10:15:00 AM 50.5072 -36.0098 260° West 492 566 36,000  Level FlightAware Transoceanic
Fri 10:16:00 AM 50.4840 -36.2219 260° West 492 566 36,000  Level FlightAware Transoceanic
Fri 10:17:00 AM 50.4603 -36.4337 260° West 492 566 36,000  Level FlightAware Transoceanic
Fri 10:18:00 AM 50.4363 -36.6454 260° West 492 566 36,000  Level FlightAware Transoceanic
Fri 10:19:00 AM 50.4118 -36.8568 260° West 492 566 36,000  Level FlightAware Transoceanic
Fri 10:20:00 AM 50.3870 -37.0680 259° West 492 566 36,000  Level FlightAware Transoceanic
Fri 10:21:00 AM 50.3619 -37.2789 259° West 492 566 36,000  Level FlightAware Transoceanic
Fri 10:22:00 AM 50.3363 -37.4897 259° West 492 566 36,000  Level FlightAware Transoceanic
Fri 10:23:00 AM 50.3103 -37.7002 259° West 492 566 36,000  Level FlightAware Transoceanic
Fri 10:24:00 AM 50.2840 -37.9105 259° West 492 566 36,000  Level FlightAware Transoceanic
Fri 10:25:00 AM 50.2573 -38.1205 259° West 492 566 36,000  Level FlightAware Transoceanic
Fri 10:26:00 AM 50.2302 -38.3303 259° West 492 566 36,000  Level FlightAware Transoceanic
Fri 10:27:00 AM 50.2027 -38.5399 258° West 492 566 36,000  Level FlightAware Transoceanic
Fri 10:28:00 AM 50.1749 -38.7493 258° West 492 566 36,000  Level FlightAware Transoceanic
Fri 10:29:00 AM 50.1467 -38.9583 258° West 492 566 36,000  Level FlightAware Transoceanic
Fri 10:30:00 AM 50.1181 -39.1672 258° West 492 566 36,000  Level FlightAware Transoceanic
Fri 10:31:00 AM 50.0891 -39.3758 258° West 492 566 36,000  Level FlightAware Transoceanic
Fri 10:32:00 AM 50.0598 -39.5841 258° West 492 566 36,000  Level FlightAware Transoceanic
Fri 10:33:00 AM 50.0301 -39.7922 257° West 492 566 36,000  Level FlightAware Transoceanic
Fri 10:34:00 AM 50.0025 -39.9831 257° West  Level FlightAware Approximate
Fri 10:35:00 AM 49.9745 -40.1738 257° West  Level FlightAware Approximate
Fri 10:35:54 AM 50.0000 -40.0000 265° West 502 578 36,000  Level ETMS Enhanced Traffic Management System
Fri 10:36:00 AM 49.9907 -40.1604 265° West  Level FlightAware Approximate
Fri 10:37:00 AM 49.9792 -40.3551 265° West  Level FlightAware Approximate
Fri 10:38:00 AM 49.9673 -40.5498 265° West  Level FlightAware Approximate
Fri 10:39:00 AM 49.9551 -40.7444 265° West  Level FlightAware Approximate
Fri 10:40:00 AM 49.9426 -40.9388 264° West  Level FlightAware Approximate
Fri 10:41:00 AM 49.9297 -41.1332 264° West  Level FlightAware Approximate
Fri 10:42:00 AM 49.8912 -41.7285 264° West 502 578 36,000  Level FlightAware Transoceanic
Fri 10:43:00 AM 49.8758 -41.9440 264° West 502 578 36,000  Level FlightAware Transoceanic
Fri 10:44:00 AM 49.8600 -42.1593 263° West 502 578 36,000  Level FlightAware Transoceanic
Fri 10:45:00 AM 49.8438 -42.3745 263° West 502 578 36,000  Level FlightAware Transoceanic
Fri 10:46:00 AM 49.8272 -42.5896 263° West 502 578 36,000  Level FlightAware Transoceanic
Fri 10:47:00 AM 49.8102 -42.8045 263° West 502 578 36,000  Level FlightAware Transoceanic
Fri 10:48:00 AM 49.7928 -43.0193 263° West 502 578 36,000  Level FlightAware Transoceanic
Fri 10:49:00 AM 49.7750 -43.2339 263° West 502 578 36,000  Level FlightAware Transoceanic
Fri 10:50:00 AM 49.7568 -43.4483 262° West 502 578 36,000  Level FlightAware Transoceanic
Fri 10:51:00 AM 49.7382 -43.6626 262° West 502 578 36,000  Level FlightAware Transoceanic
Fri 10:52:00 AM 49.7192 -43.8767 262° West 502 578 36,000  Level FlightAware Transoceanic
Fri 10:53:00 AM 49.6999 -44.0906 262° West 502 578 36,000  Level FlightAware Transoceanic
Fri 10:54:00 AM 49.6801 -44.3044 262° West 502 578 36,000  Level FlightAware Transoceanic
Fri 10:55:00 AM 49.6600 -44.5180 262° West 502 578 36,000  Level FlightAware Transoceanic
Fri 10:56:00 AM 49.6394 -44.7314 261° West 502 578 36,000  Level FlightAware Transoceanic
Fri 10:57:00 AM 49.6185 -44.9447 261° West 502 578 36,000  Level FlightAware Transoceanic
Fri 10:58:00 AM 49.5971 -45.1577 261° West 502 578 36,000  Level FlightAware Transoceanic
Fri 10:59:00 AM 49.5754 -45.3706 261° West 502 578 36,000  Level FlightAware Transoceanic
Fri 11:00:00 AM 49.5533 -45.5833 261° West 502 578 36,000  Level FlightAware Transoceanic
Fri 11:01:00 AM 49.5308 -45.7957 261° West 502 578 36,000  Level FlightAware Transoceanic
Fri 11:02:00 AM 49.5079 -46.0080 260° West 502 578 36,000  Level FlightAware Transoceanic
Fri 11:03:00 AM 49.4846 -46.2201 260° West 502 578 36,000  Level FlightAware Transoceanic
Fri 11:04:00 AM 49.4609 -46.4320 260° West 502 578 36,000  Level FlightAware Transoceanic
Fri 11:05:00 AM 49.4369 -46.6437 260° West 502 578 36,000  Level FlightAware Transoceanic
Fri 11:06:00 AM 49.4124 -46.8551 260° West 502 578 36,000  Level FlightAware Transoceanic
Fri 11:07:00 AM 49.3876 -47.0664 260° West 502 578 36,000  Level FlightAware Transoceanic
Fri 11:08:00 AM 49.3624 -47.2774 260° West 502 578 36,000  Level FlightAware Transoceanic
Fri 11:09:00 AM 49.3368 -47.4882 259° West 502 578 36,000  Level FlightAware Transoceanic
Fri 11:10:00 AM 49.3108 -47.6988 259° West 502 578 36,000  Level FlightAware Transoceanic
Fri 11:11:00 AM 49.2845 -47.9092 259° West 502 578 36,000  Level FlightAware Transoceanic
Fri 11:12:00 AM 49.2577 -48.1193 259° West 502 578 36,000  Level FlightAware Transoceanic
Fri 11:13:00 AM 49.2306 -48.3292 259° West 502 578 36,000  Level FlightAware Transoceanic
Fri 11:14:00 AM 49.2031 -48.5389 259° West 502 578 36,000  Level FlightAware Transoceanic
Fri 11:15:00 AM 49.1752 -48.7484 258° West 502 578 36,000  Level FlightAware Transoceanic
Fri 11:16:00 AM 49.1469 -48.9576 258° West 502 578 36,000  Level FlightAware Transoceanic
Fri 11:17:00 AM 49.1183 -49.1666 258° West 502 578 36,000  Level FlightAware Transoceanic
Fri 11:18:00 AM 49.0893 -49.3753 258° West 502 578 36,000  Level FlightAware Transoceanic
Fri 11:19:00 AM 49.0599 -49.5838 258° West 502 578 36,000  Level FlightAware Transoceanic
Fri 11:20:00 AM 49.0301 -49.7920 258° West 502 578 36,000  Level FlightAware Transoceanic
Fri 11:21:00 AM 49.0008 -49.9785 257° West  Level FlightAware Approximate
Fri 11:22:00 AM 49.0000 -50.0000 251° West 500 575 36,000  Level ETMS Enhanced Traffic Management System
Fri 11:22:00 AM 48.9712 -50.1647 256° West  Level FlightAware Approximate
Fri 11:23:00 AM 48.9680 -50.1400 251° West  Level FlightAware Approximate
Fri 11:23:47 AM 48.9200 -50.2660 251° West 485 558 36,000  Level FlightAware ADS-B
Fri 11:24:00 AM 48.9263 -50.3207 251° West  Level FlightAware Approximate
Fri 11:24:27 AM 48.8980 -50.3950 256° West 492 566 36,000  Level FlightAware ADS-B
Fri 11:25:12 AM 48.8810 -50.5470 260° West 499 574 36,000  Level FlightAware ADS-B
Fri 11:25:52 AM 48.8720 -50.6910 265° West 499 574 36,000  Level FlightAware ADS-B
Fri 11:26:32 AM 48.8650 -50.8290 266° West 500 575 36,000 -71 Level FlightAware ADS-B
Fri 11:27:17 AM 48.8560 -50.9870 265° West 501 577 35,900  Descending FlightAware ADS-B
Fri 11:27:57 AM 48.8490 -51.1230 266° West 501 577 36,000 71 Climbing FlightAware ADS-B
Fri 11:28:42 AM 48.8410 -51.2840 251° West 500 575 36,000  Level FlightAware ADS-B
Fri 11:29:22 AM 48.8330 -51.4250 265° West 500 575 36,000  Level FlightAware ADS-B
Fri 11:30:07 AM 48.8240 -51.5810 265° West 499 574 36,000  Level FlightAware ADS-B
Fri 11:30:47 AM 48.8160 -51.7220 265° West 499 574 36,000  Level FlightAware ADS-B
Fri 11:31:27 AM 48.8080 -51.8590 265° West 498 573 36,000 282 Level FlightAware ADS-B
Fri 11:32:12 AM 48.7980 -52.0160 265° West 494 568 36,400 494 Climbing FlightAware ADS-B
Fri 11:32:52 AM 48.7900 -52.1510 265° West 495 570 36,700 424 Climbing FlightAware ADS-B
Fri 11:33:37 AM 48.7790 -52.3070 264° West 494 568 37,000 494 Climbing FlightAware ADS-B
Fri 11:34:17 AM 48.7710 -52.4470 265° West 492 566 37,400 525 Climbing FlightAware ADS-B
Fri 11:34:57 AM 48.7610 -52.5910 264° West 488 562 37,700 424 Climbing FlightAware ADS-B
Fri 11:35:42 AM 48.7510 -52.7340 264° West 488 562 38,000 212 Climbing FlightAware ADS-B
Fri 11:36:22 AM 48.7410 -52.8780 264° West 488 562 38,000  Level FlightAware ADS-B
Fri 11:37:07 AM 48.7300 -53.0350 264° West 489 563 38,000  Level FlightAware ADS-B
Fri 11:37:47 AM 48.7210 -53.1710 264° West 489 563 38,000  Level FlightAware ADS-B
Fri 11:38:27 AM 48.7110 -53.3080 264° West 489 563 38,000  Level FlightAware ADS-B
Fri 11:39:12 AM 48.7000 -53.4530 263° West 488 562 38,000  Level FlightAware ADS-B
Fri 11:39:52 AM 48.6890 -53.5930 263° West 488 562 38,000  Level FlightAware ADS-B
Fri 11:40:37 AM 48.6780 -53.7390 264° West 488 562 38,000  Level FlightAware ADS-B
Fri 11:41:17 AM 48.6680 -53.8750 264° West 486 559 38,000  Level FlightAware ADS-B
Fri 11:41:57 AM 48.6570 -54.0060 263° West 486 559 38,000  Level FlightAware ADS-B
Fri 11:42:42 AM 48.6450 -54.1610 263° West 486 559 38,000  Level FlightAware ADS-B
Fri 11:43:12 AM 48.6370 -54.2550 263° West 486 559 38,000  Level FlightAware ADS-B
Fri 11:43:53 AM 48.6333 -54.3667 263° West 490 564 38,000  Level Moncton Center
Fri 11:44:53 AM 48.6167 -54.5833 263° West 490 564 38,000  Level Moncton Center
Fri 11:45:53 AM 48.6000 -54.7667 262° West 480 552 38,000  Level Moncton Center
Fri 11:46:53 AM 48.5833 -54.9667 263° West 480 552 38,000  Level Moncton Center
Fri 11:47:53 AM 48.5667 -55.1667 263° West 490 564 38,000  Level Moncton Center
Fri 11:48:50 AM 48.5667 -55.3667 270° West 480 552 38,000  Level Gander Center
Fri 11:55:02 AM 48.4190 -56.6220 270° West 479 551 38,000  Level FlightAware ADS-B
Fri 11:57:07 AM 48.3780 -57.0230 261° West 478 550 38,000  Level FlightAware ADS-B
Fri 11:57:47 AM 48.3660 -57.1350 261° West 478 550 38,000  Level FlightAware ADS-B
Fri 12:02:47 PM 48.2540 -58.1510 261° West 480 552 38,000  Level FlightAware ADS-B
Fri 12:03:27 PM 48.2400 -58.2770 261° West 480 552 38,000  Level FlightAware ADS-B
Fri 12:04:07 PM 48.2260 -58.4010 260° West 481 554 38,000  Level FlightAware ADS-B
Fri 12:04:47 PM 48.2090 -58.5360 259° West 480 552 38,000  Level FlightAware ADS-B
Fri 12:05:47 PM 48.1870 -58.7240 260° West 480 552 38,000  Level FlightAware ADS-B
Fri 12:06:27 PM 48.1720 -58.8360 259° West 480 552 38,000  Level FlightAware ADS-B
Fri 12:07:07 PM 48.1580 -58.9470 259° West 480 552 38,000  Level FlightAware ADS-B
Fri 12:07:47 PM 48.1430 -59.0580 259° West 480 552 38,000  Level FlightAware ADS-B
Fri 12:08:37 PM 48.1250 -59.1970 259° West 480 552 38,000  Level FlightAware ADS-B
Fri 12:09:17 PM 48.1110 -59.3080 259° West 480 552 38,000  Level FlightAware ADS-B
Fri 12:09:57 PM 48.0960 -59.4190 259° West 480 552 38,000  Level FlightAware ADS-B
Fri 12:10:37 PM 48.0820 -59.5300 259° West 480 552 38,000  Level FlightAware ADS-B
Fri 12:11:17 PM 48.0680 -59.6410 259° West 480 552 38,000  Level FlightAware ADS-B
Fri 12:11:57 PM 48.0530 -59.7510 259° West 480 552 38,000  Level FlightAware ADS-B
Fri 12:12:47 PM 48.0350 -59.8900 259° West 480 552 38,000  Level FlightAware ADS-B
Fri 12:13:27 PM 48.0210 -60.0010 259° West 480 552 38,000  Level FlightAware ADS-B
Fri 12:14:07 PM 48.0060 -60.1120 259° West 480 552 38,000  Level FlightAware ADS-B
Fri 12:14:47 PM 47.9920 -60.2220 259° West 480 552 38,000  Level FlightAware ADS-B
Fri 12:15:53 PM 47.9333 -60.6667 259° West 470 541 38,000  Level Moncton Center
Fri 12:16:53 PM 47.9167 -60.8500 262° West 470 541 38,000  Level Moncton Center
Fri 12:17:53 PM 47.8833 -61.0500 256° West 470 541 38,000  Level Moncton Center
Fri 12:18:53 PM 47.8500 -61.2333 255° West 470 541 38,000  Level Moncton Center
Fri 12:19:53 PM 47.8333 -61.4333 263° West 470 541 38,000  Level Moncton Center
Fri 12:20:53 PM 47.8000 -61.6000 253° West 470 541 38,000  Level Moncton Center
Fri 12:21:53 PM 47.7833 -61.8000 263° West 470 541 38,000  Level Moncton Center
Fri 12:22:53 PM 47.7667 -62.0000 263° West 480 552 38,000  Level Moncton Center
Fri 12:23:53 PM 47.7333 -62.2000 256° West 480 552 38,000  Level Moncton Center
Fri 12:24:53 PM 47.7000 -62.3833 255° West 480 552 38,000  Level Moncton Center
Fri 12:25:53 PM 47.6667 -62.5833 256° West 480 552 38,000  Level Moncton Center
Fri 12:26:53 PM 47.6333 -62.7833 256° West 480 552 38,000  Level Moncton Center
Fri 12:27:53 PM 47.6000 -62.9500 254° West 470 541 38,000  Level Moncton Center
Fri 12:28:53 PM 47.5833 -63.1500 263° West 470 541 38,000  Level Moncton Center
Fri 12:29:53 PM 47.5500 -63.3333 255° West 470 541 38,000  Level Moncton Center
Fri 12:30:53 PM 47.5167 -63.5333 256° West 470 541 38,000  Level Moncton Center
Fri 12:31:53 PM 47.4833 -63.7333 256° West 470 541 38,000  Level Moncton Center
Fri 12:32:53 PM 47.4500 -63.9333 256° West 470 541 38,000  Level Moncton Center
Fri 12:33:53 PM 47.4167 -64.1000 254° West 470 541 38,000  Level Moncton Center
Fri 12:34:53 PM 47.3833 -64.3000 256° West 480 552 38,000  Level Moncton Center
Fri 12:35:53 PM 47.3500 -64.4667 254° West 480 552 38,000  Level Moncton Center
Fri 12:36:53 PM 47.3167 -64.6667 256° West 480 552 38,000  Level Moncton Center
Fri 12:37:53 PM 47.2833 -64.8667 256° West 480 552 38,000  Level Moncton Center
Fri 12:38:53 PM 47.2500 -65.0333 254° West 480 552 38,000  Level Moncton Center
Fri 12:39:53 PM 47.2167 -65.2333 256° West 490 564 38,000  Level Moncton Center
Fri 12:40:53 PM 47.1833 -65.4333 256° West 480 552 38,000  Level Moncton Center
Fri 12:41:53 PM 47.1333 -65.6333 250° West 490 564 38,000  Level Moncton Center
Fri 12:42:53 PM 47.1000 -65.8167 255° West 490 564 38,000  Level Moncton Center
Fri 12:43:53 PM 47.0667 -66.0167 256° West 490 564 38,000  Level Moncton Center
Fri 12:44:53 PM 47.0333 -66.2167 256° West 490 564 38,000  Level Moncton Center
Fri 12:45:53 PM 47.0000 -66.4167 256° West 500 575 38,000  Level Moncton Center
Fri 12:46:53 PM 46.9500 -66.6000 248° West 490 564 38,000  Level Moncton Center
Fri 12:47:53 PM 46.9000 -66.8000 250° West 500 575 38,000  Level Moncton Center
Fri 12:53:22 PM 46.6570 -67.8680 250° West 494 568 38,000  Level FlightAware ADS-B
Fri 12:54:07 PM 46.6260 -67.9930 250° West 494 568 38,000  Level FlightAware ADS-B
Fri 12:54:37 PM 46.6020 -68.0940 251° West 490 564 38,000  Level FlightAware ADS-B
Fri 12:55:27 PM 46.5640 -68.2490 250° West 489 563 38,000  Level FlightAware ADS-B
Fri 12:56:12 PM 46.5330 -68.3730 250° West 485 558 38,000  Level FlightAware ADS-B
Fri 12:56:52 PM 46.4980 -68.5170 251° West 486 559 38,000  Level FlightAware ADS-B
Fri 12:57:32 PM 46.4670 -68.6390 250° West 484 557 38,000  Level FlightAware ADS-B
Fri 12:58:17 PM 46.4330 -68.7740 250° West 481 554 38,000  Level FlightAware ADS-B
Fri 12:58:57 PM 46.4030 -68.8940 250° West 479 551 38,000  Level FlightAware ADS-B
Fri 12:59:42 PM 46.3680 -69.0310 250° West 479 551 38,000  Level FlightAware ADS-B
Fri 01:00:22 PM 46.3370 -69.1500 249° West 476 548 38,000  Level FlightAware ADS-B
Fri 01:01:02 PM 46.3070 -69.2680 250° West 475 547 38,000  Level FlightAware ADS-B
Fri 01:01:47 PM 46.2730 -69.4010 250° West 474 545 38,000  Level FlightAware ADS-B
Fri 01:02:27 PM 46.2420 -69.5180 249° West 473 544 38,000  Level FlightAware ADS-B
Fri 01:03:07 PM 46.2110 -69.6360 249° West 472 543 38,000  Level FlightAware ADS-B
Fri 01:03:52 PM 46.1770 -69.7680 250° West 472 543 38,000  Level FlightAware ADS-B
Fri 01:04:32 PM 46.1460 -69.8860 249° West 470 541 38,000  Level FlightAware ADS-B
Fri 01:05:17 PM 46.1110 -70.0160 249° West 470 541 38,000  Level FlightAware ADS-B
Fri 01:05:57 PM 46.0800 -70.1330 249° West 470 541 38,000  Level FlightAware ADS-B
Fri 01:06:37 PM 46.0490 -70.2500 249° West 470 541 38,000  Level FlightAware ADS-B
Fri 01:07:22 PM 46.0140 -70.3790 249° West 469 540 38,000  Level FlightAware ADS-B
Fri 01:08:02 PM 45.9830 -70.4960 249° West 469 540 38,000  Level FlightAware ADS-B
Fri 01:08:47 PM 45.9480 -70.6260 249° West 467 537 38,000  Level FlightAware ADS-B
Fri 01:09:27 PM 45.9170 -70.7400 249° West 467 537 38,000  Level FlightAware ADS-B
Fri 01:10:12 PM 45.8880 -70.8720 253° West 460 529 38,000  Level FlightAware ADS-B
Fri 01:10:52 PM 45.8760 -70.9910 262° West 458 527 38,000  Level FlightAware ADS-B
Fri 01:11:32 PM 45.8650 -71.1120 263° West 458 527 38,000  Level FlightAware ADS-B
Fri 01:12:12 PM 45.8550 -71.2310 263° West 457 526 38,000 -71 Level FlightAware ADS-B
Fri 01:12:57 PM 45.8430 -71.3650 263° West 454 522 37,900 -635 Descending FlightAware ADS-B
Fri 01:13:37 PM 45.8330 -71.4840 263° West 454 522 37,100 -1,200 Descending FlightAware ADS-B
Fri 01:14:22 PM 45.8200 -71.6180 262° West 455 524 36,200 -1,200 Descending FlightAware ADS-B
Fri 01:15:02 PM 45.8090 -71.7350 262° West 453 521 35,400 -1,482 Descending FlightAware ADS-B
Fri 01:15:47 PM 45.7970 -71.8690 263° West 458 527 34,100 -2,471 Descending FlightAware ADS-B
Fri 01:16:27 PM 45.7850 -71.9900 262° West 465 535 31,900 -3,300 Descending FlightAware ADS-B
Fri 01:17:07 PM 45.7740 -72.1120 263° West 466 536 29,700 -2,894 Descending FlightAware ADS-B
Fri 01:17:52 PM 45.7600 -72.2470 262° West 454 522 27,800 -2,471 Descending FlightAware ADS-B
Fri 01:18:32 PM 45.7490 -72.3620 262° West 445 512 26,200 -2,541 Descending FlightAware ADS-B
Fri 01:19:17 PM 45.7360 -72.4950 262° West 436 502 24,200 -2,533 Descending FlightAware ADS-B
Fri 01:20:02 PM 45.7240 -72.6220 262° West 428 493 22,400 -2,329 Descending FlightAware ADS-B
Fri 01:20:42 PM 45.7140 -72.7240 262° West 423 487 20,900 -2,475 Descending FlightAware ADS-B
Fri 01:21:22 PM 45.7020 -72.8440 262° West 414 476 19,100 -2,541 Descending FlightAware ADS-B
Fri 01:22:07 PM 45.6900 -72.9620 262° West 409 471 17,300 -2,118 Descending FlightAware ADS-B
Fri 01:22:47 PM 45.6790 -73.0700 262° West 392 451 16,100 -1,875 Descending FlightAware ADS-B
Fri 01:23:27 PM 45.6540 -73.1630 249° West 383 441 14,800 -2,047 Descending FlightAware ADS-B
Fri 01:24:12 PM 45.6110 -73.2630 238° Southwest 374 430 13,200 -2,118 Descending FlightAware ADS-B
Fri 01:24:52 PM 45.5750 -73.3440 238° Southwest 369 425 11,800 -1,875 Descending FlightAware ADS-B
Fri 01:25:32 PM 45.5380 -73.4230 236° Southwest 351 404 10,700 -1,341 Descending FlightAware ADS-B
Fri 01:26:17 PM 45.4900 -73.4920 225° Southwest 313 360 9,900 -1,114 Descending FlightAware ADS-B
Fri 01:26:42 PM 45.4630 -73.5270 222° Southwest 292 336 9,400 -1,636 Descending FlightAware ADS-B
Fri 01:27:12 PM 45.4350 -73.5650 224° Southwest 287 330 8,400 -1,400 Descending FlightAware ADS-B
Fri 01:27:42 PM 45.4060 -73.6040 223° Southwest 273 314 8,000 -900 Descending FlightAware ADS-B
Fri 01:27:52 PM 45.3970 -73.6160 223° Southwest 271 312 7,800 -1,650 Descending FlightAware ADS-B
Fri 01:28:22 PM 45.3690 -73.6540 224° Southwest 275 316 6,900 -1,900 Descending FlightAware ADS-B
Fri 01:28:52 PM 45.3410 -73.6900 222° Southwest 273 314 5,900 -2,100 Descending FlightAware ADS-B
Fri 01:29:22 PM 45.3140 -73.7270 224° Southwest 268 308 4,800 -2,073 Descending FlightAware ADS-B
Fri 01:29:47 PM 45.2940 -73.7600 229° Southwest 269 310 4,000 -1,800 Descending FlightAware ADS-B
Fri 01:30:02 PM 45.2890 -73.7850 254° West 263 303 3,600 -1,200 Descending FlightAware ADS-B
Fri 01:30:17 PM 45.2890 -73.8100 270° West 254 292 3,400 -750 Descending FlightAware ADS-B
Fri 01:30:42 PM 45.2970 -73.8500 286° West 239 275 3,100 -600 Descending FlightAware ADS-B
Fri 01:30:57 PM 45.3060 -73.8680 305° West 227 261 3,000 -600 Descending FlightAware ADS-B
Fri 01:31:12 PM 45.3180 -73.8830 319° Northwest 211 243 2,800 -1,200 Descending FlightAware ADS-B
Fri 01:31:27 PM 45.3300 -73.8890 341° North 207 238 2,400 -1,200 Descending FlightAware ADS-B
Fri 01:31:52 PM 45.3470 -73.8830 14° North 189 217 2,000 -900 Descending FlightAware ADS-B
Fri 01:32:07 PM 45.3590 -73.8690 39° Northeast 170 196 1,800 -1,050 Descending FlightAware ADS-B
Fri 01:32:32 PM 45.3720 -73.8490 47° Northeast 161 185 1,300 -982 Descending FlightAware ADS-B
Fri 01:33:02 PM 45.3860 -73.8300 44° Northeast 155 178 900 -764 Descending FlightAware ADS-B
Fri 01:33:27 PM 45.4010 -73.8120 40° Northeast 145 167 600 -800 Descending FlightAware ADS-B
Fri 01:34:02 PM 45.4190 -73.7900 41° Northeast 142 163 100 -857 Descending FlightAware ADS-B
Fri 01:34:27 PM 45.4300 -73.7760 42° Northeast 143 165 -240 Descending FlightAware ADS-B

Login

Don't have an account? Register now (free) for customized features, flight alerts, and more!